createdAt,value
2019-01-17T00:01:49.213Z,86.60
2019-01-17T00:04:20.909Z,87.02
2019-01-17T00:06:52.052Z,86.27
2019-01-17T00:09:23.264Z,85.67
2019-01-17T00:12:00.021Z,85.66
2019-01-17T00:14:47.386Z,85.55
2019-01-17T00:17:27.436Z,85.73
2019-01-17T00:20:10.616Z,85.64
2019-01-17T00:22:44.724Z,86.08
2019-01-17T00:25:21.818Z,85.46
2019-01-17T00:27:56.155Z,85.47
2019-01-17T00:30:42.475Z,84.98
2019-01-17T00:33:28.714Z,84.87
2019-01-17T00:35:59.853Z,84.79
2019-01-17T00:38:34.029Z,85.15
2019-01-17T00:41:05.205Z,85.32
2019-01-17T00:43:36.305Z,85.41
2019-01-17T00:46:10.568Z,85.52
2019-01-17T00:48:41.705Z,85.71
2019-01-17T00:51:29.107Z,85.75
2019-01-17T00:54:08.956Z,86.01
2019-01-17T00:56:48.552Z,85.90
2019-01-17T00:59:19.730Z,85.97
2019-01-17T01:01:57.174Z,85.65
2019-01-17T01:04:28.364Z,85.46
2019-01-17T01:07:17.211Z,85.64
2019-01-17T01:09:51.669Z,85.38
2019-01-17T01:12:22.932Z,85.62
2019-01-17T01:15:12.339Z,85.84
2019-01-17T01:17:43.549Z,85.80
2019-01-17T01:20:29.750Z,86.19
2019-01-17T01:23:01.150Z,86.47
2019-01-17T01:25:32.446Z,86.62
2019-01-17T01:28:18.800Z,86.66
2019-01-17T01:30:53.220Z,86.81
2019-01-17T01:33:24.599Z,86.89
2019-01-17T01:35:58.570Z,87.01
2019-01-17T01:38:46.219Z,86.97
2019-01-17T01:41:17.459Z,86.88
2019-01-17T01:43:48.686Z,87.12
2019-01-17T01:46:32.307Z,86.81
2019-01-17T01:49:15.736Z,86.71
2019-01-17T01:51:49.581Z,86.76
2019-01-17T01:54:22.082Z,86.63
2019-01-17T01:56:51.040Z,85.96
2019-01-17T01:59:23.374Z,86.24
2019-01-17T02:01:52.955Z,86.45
2019-01-17T02:04:22.594Z,86.63
2019-01-17T02:06:52.259Z,86.56
2019-01-17T02:09:22.109Z,86.54
2019-01-17T02:11:51.838Z,86.65
2019-01-17T02:14:21.486Z,86.50
2019-01-17T02:16:51.259Z,86.01
2019-01-17T02:19:20.933Z,86.32
2019-01-17T02:21:50.583Z,86.40
2019-01-17T02:24:21.831Z,86.55
2019-01-17T02:26:51.555Z,86.20
2019-01-17T02:29:21.152Z,86.39
2019-01-17T02:31:50.691Z,86.21
2019-01-17T02:34:20.230Z,85.85
2019-01-17T02:36:49.963Z,85.63
2019-01-17T02:39:19.675Z,85.50
2019-01-17T02:41:49.358Z,85.56
2019-01-17T02:44:18.893Z,85.27
2019-01-17T02:46:48.409Z,85.06
2019-01-17T02:49:18.232Z,85.17
2019-01-17T02:52:47.136Z,84.87
2019-01-17T02:55:16.867Z,84.95
2019-01-17T02:57:46.488Z,84.74
2019-01-17T03:00:17.461Z,84.98
2019-01-17T03:02:51.505Z,85.09
2019-01-17T03:05:21.152Z,84.87
2019-01-17T03:07:50.790Z,84.80
2019-01-17T03:10:21.236Z,84.76
2019-01-17T03:12:50.925Z,84.89
2019-01-17T03:15:20.936Z,84.72
2019-01-17T03:17:51.103Z,84.44
2019-01-17T03:20:21.571Z,84.65
2019-01-17T03:22:51.476Z,84.79
2019-01-17T03:25:21.159Z,84.69
2019-01-17T03:27:50.837Z,84.75
2019-01-17T03:30:20.399Z,84.88
2019-01-17T03:32:50.000Z,84.70
2019-01-17T03:35:20.104Z,84.57
2019-01-17T03:37:49.696Z,84.54
2019-01-17T03:40:19.319Z,84.63
2019-01-17T03:42:49.893Z,84.59
2019-01-17T03:45:19.624Z,84.84
2019-01-17T03:47:49.351Z,84.55
2019-01-17T03:50:18.988Z,84.62
2019-01-17T03:52:48.609Z,84.63
2019-01-17T03:55:19.521Z,84.39
2019-01-17T03:57:49.281Z,84.41
2019-01-17T04:00:19.857Z,83.96
2019-01-17T04:02:49.487Z,83.81
2019-01-17T04:05:19.095Z,83.58
2019-01-17T04:07:48.917Z,83.18
2019-01-17T04:10:18.717Z,82.66
2019-01-17T04:12:48.468Z,83.26
2019-01-17T04:15:18.198Z,83.49
2019-01-17T04:17:47.730Z,83.79
2019-01-17T04:20:17.517Z,83.69
2019-01-17T04:22:47.180Z,83.62
2019-01-17T04:25:16.944Z,83.82
2019-01-17T04:27:46.678Z,83.73
2019-01-17T04:30:17.610Z,83.80
2019-01-17T04:32:47.266Z,84.07
2019-01-17T04:35:17.810Z,84.07
2019-01-17T04:37:47.474Z,84.51
2019-01-17T04:40:16.986Z,84.48
2019-01-17T04:42:46.666Z,84.48
2019-01-17T04:45:16.238Z,84.95
2019-01-17T04:47:45.985Z,84.85
2019-01-17T04:50:15.495Z,84.86
2019-01-17T04:52:45.334Z,84.76
2019-01-17T04:55:15.033Z,84.83
2019-01-17T04:57:44.586Z,84.99
2019-01-17T05:00:17.246Z,84.65
2019-01-17T05:02:47.581Z,84.45
2019-01-17T05:05:17.363Z,84.70
2019-01-17T05:07:46.967Z,84.56
2019-01-17T05:10:18.251Z,84.46
2019-01-17T05:12:47.759Z,84.24
2019-01-17T05:15:17.350Z,84.53
2019-01-17T05:17:47.006Z,84.49
2019-01-17T05:20:16.806Z,84.48
2019-01-17T05:22:46.553Z,84.65
2019-01-17T05:25:16.418Z,84.60
2019-01-17T05:27:46.099Z,84.47
2019-01-17T05:30:19.305Z,84.48
2019-01-17T05:32:49.155Z,84.56
2019-01-17T05:35:18.847Z,84.87
2019-01-17T05:37:48.492Z,84.77
2019-01-17T05:40:19.531Z,85.00
2019-01-17T05:42:49.206Z,84.93
2019-01-17T05:45:18.966Z,84.95
2019-01-17T05:47:48.608Z,84.77
2019-01-17T05:50:18.794Z,85.03
2019-01-17T05:52:48.416Z,85.20
2019-01-17T05:55:20.081Z,85.14
2019-01-17T05:57:49.777Z,84.41
2019-01-17T06:00:20.786Z,84.96
2019-01-17T06:02:50.359Z,84.72
2019-01-17T06:05:20.091Z,84.80
2019-01-17T06:07:49.696Z,84.63
2019-01-17T06:10:19.403Z,84.10
2019-01-17T06:12:49.379Z,84.18
2019-01-17T06:15:20.817Z,83.93
2019-01-17T06:17:50.330Z,83.37
2019-01-17T06:20:20.142Z,83.72
2019-01-17T06:22:49.923Z,83.48
2019-01-17T06:25:27.771Z,83.19
2019-01-17T06:28:04.446Z,83.34
2019-01-17T06:30:34.027Z,83.19
2019-01-17T06:33:03.655Z,82.93
2019-01-17T06:35:33.395Z,82.75
2019-01-17T06:38:03.155Z,82.54
2019-01-17T06:40:33.087Z,82.54
2019-01-17T06:43:02.616Z,82.46
2019-01-17T06:45:32.230Z,82.70
2019-01-17T06:48:01.776Z,82.53
2019-01-17T06:50:31.417Z,82.38
2019-01-17T06:53:02.183Z,82.56
2019-01-17T06:55:34.529Z,82.65
2019-01-17T06:58:05.061Z,82.69
2019-01-17T07:00:34.767Z,82.20
2019-01-17T07:03:04.339Z,82.91
2019-01-17T07:05:33.921Z,82.61
2019-01-17T07:08:03.615Z,83.12
2019-01-17T07:10:33.158Z,83.05
2019-01-17T07:13:02.742Z,83.30
2019-01-17T07:15:32.380Z,83.26
2019-01-17T07:18:01.869Z,83.58
2019-01-17T07:20:31.570Z,84.13
2019-01-17T07:23:01.113Z,84.31
2019-01-17T07:25:30.742Z,83.92
2019-01-17T07:28:00.272Z,83.48
2019-01-17T07:30:30.024Z,83.72
2019-01-17T07:32:59.575Z,83.38
2019-01-17T07:35:41.351Z,83.37
2019-01-17T07:38:10.949Z,83.35
2019-01-17T07:40:40.534Z,83.46
2019-01-17T07:43:10.151Z,83.99
2019-01-17T07:45:39.752Z,83.76
2019-01-17T07:48:09.307Z,84.40
2019-01-17T07:50:38.971Z,84.09
2019-01-17T07:53:08.639Z,83.92
2019-01-17T07:55:38.139Z,84.24
2019-01-17T07:58:07.757Z,84.53
2019-01-17T08:00:37.458Z,84.30
2019-01-17T08:03:07.080Z,84.40
2019-01-17T08:05:36.706Z,84.28
2019-01-17T08:08:06.328Z,84.31
2019-01-17T08:10:35.913Z,84.54
2019-01-17T08:13:05.560Z,84.31
2019-01-17T08:15:35.192Z,83.02
2019-01-17T08:18:04.952Z,82.99
2019-01-17T08:20:34.495Z,83.62
2019-01-17T08:23:04.022Z,83.44
2019-01-17T08:25:33.541Z,82.59
2019-01-17T08:28:03.263Z,82.69
2019-01-17T08:30:32.806Z,82.48
2019-01-17T08:33:02.495Z,83.01
2019-01-17T08:35:32.031Z,82.89
2019-01-17T08:38:01.493Z,83.04
2019-01-17T08:40:31.624Z,82.30
2019-01-17T08:43:01.069Z,82.87
2019-01-17T08:45:30.544Z,82.62
2019-01-17T08:48:00.498Z,83.25
2019-01-17T08:50:30.167Z,83.26
2019-01-17T08:52:59.907Z,82.96
2019-01-17T08:55:29.502Z,82.81
2019-01-17T08:57:59.105Z,83.22
2019-01-17T09:00:28.635Z,82.96
2019-01-17T09:02:58.252Z,83.23
2019-01-17T09:05:27.864Z,83.08
2019-01-17T09:07:57.614Z,83.46
2019-01-17T09:10:29.033Z,83.32
2019-01-17T09:12:58.542Z,83.73
2019-01-17T09:15:30.612Z,83.56
2019-01-17T09:18:00.179Z,83.59
2019-01-17T09:20:29.776Z,84.01
2019-01-17T09:22:59.381Z,83.42
2019-01-17T09:25:29.149Z,84.19
2019-01-17T09:27:58.665Z,84.30
2019-01-17T09:30:28.335Z,84.14
2019-01-17T09:32:57.882Z,83.74
2019-01-17T09:35:27.492Z,83.43
2019-01-17T09:37:57.172Z,83.58
2019-01-17T09:40:26.757Z,83.16
2019-01-17T09:42:56.420Z,83.30
2019-01-17T09:45:25.971Z,83.34
2019-01-17T09:47:55.688Z,82.70
2019-01-17T09:50:26.014Z,83.29
2019-01-17T09:52:55.640Z,83.70
2019-01-17T09:55:25.138Z,83.71
2019-01-17T09:57:54.820Z,83.31
2019-01-17T10:00:29.045Z,82.99
2019-01-17T10:02:58.553Z,83.42
2019-01-17T10:05:28.375Z,83.27
2019-01-17T10:07:57.825Z,82.86
2019-01-17T10:10:27.435Z,83.33
2019-01-17T10:12:57.099Z,83.41
2019-01-17T10:15:35.847Z,83.25
2019-01-17T10:18:40.785Z,83.32
2019-01-17T10:21:16.478Z,83.83
2019-01-17T10:23:57.960Z,83.86
2019-01-17T10:26:39.905Z,83.67
2019-01-17T10:29:29.419Z,82.91
2019-01-17T10:32:02.243Z,82.25
2019-01-17T10:34:58.792Z,82.68
2019-01-17T10:37:49.649Z,82.62
2019-01-17T10:40:35.497Z,82.27
2019-01-17T10:43:17.151Z,82.52
2019-01-17T10:45:53.234Z,82.71
2019-01-17T10:48:31.777Z,83.14
2019-01-17T10:51:21.561Z,82.24
2019-01-17T10:54:06.385Z,81.48
2019-01-17T10:56:41.480Z,80.74
2019-01-17T10:59:25.646Z,81.29
2019-01-17T11:02:10.441Z,80.86
2019-01-17T11:04:43.331Z,80.15
2019-01-17T11:07:34.269Z,80.17
2019-01-17T11:10:28.519Z,79.78
2019-01-17T11:13:04.103Z,79.32
2019-01-17T11:15:45.835Z,78.83
2019-01-17T11:18:30.670Z,79.05
2019-01-17T11:21:28.930Z,78.79
2019-01-17T11:24:04.288Z,78.38
2019-01-17T11:26:49.178Z,78.94
2019-01-17T11:29:24.831Z,78.75
2019-01-17T11:32:00.301Z,78.64
2019-01-17T11:34:54.529Z,78.80
2019-01-17T11:37:42.447Z,79.31
2019-01-17T11:40:18.191Z,79.50
2019-01-17T11:42:59.409Z,79.58
2019-01-17T11:45:36.288Z,79.64
2019-01-17T11:48:20.838Z,79.97
2019-01-17T11:50:59.822Z,79.74
2019-01-17T11:53:51.312Z,80.00
2019-01-17T11:56:33.205Z,79.87
2019-01-17T11:59:06.011Z,80.58
2019-01-17T12:01:47.869Z,80.43
2019-01-17T12:04:32.073Z,79.92
2019-01-17T12:07:09.779Z,80.03
2019-01-17T12:09:39.615Z,80.32
2019-01-17T12:12:10.188Z,80.59
2019-01-17T12:14:39.918Z,80.67
2019-01-17T12:17:09.632Z,80.59
2019-01-17T12:19:39.248Z,81.13
2019-01-17T12:22:08.715Z,81.26
2019-01-17T12:24:38.313Z,81.96
2019-01-17T12:27:07.808Z,81.63
2019-01-17T12:29:37.569Z,81.74
2019-01-17T12:32:07.211Z,82.45
2019-01-17T12:34:36.812Z,82.91
2019-01-17T12:37:06.520Z,83.15
2019-01-17T12:39:36.330Z,83.18
2019-01-17T12:42:05.855Z,83.24
2019-01-17T12:44:37.683Z,83.03
2019-01-17T12:47:07.364Z,82.54
2019-01-17T12:49:37.083Z,82.88
2019-01-17T12:52:06.691Z,82.72
2019-01-17T12:54:36.312Z,83.17
2019-01-17T12:57:05.884Z,83.29
2019-01-17T12:59:35.548Z,83.58
2019-01-17T13:02:07.770Z,83.77
2019-01-17T13:04:37.356Z,84.21
2019-01-17T13:07:07.147Z,84.57
2019-01-17T13:09:36.794Z,84.53
2019-01-17T13:12:06.373Z,84.17
2019-01-17T13:14:36.017Z,83.46
2019-01-17T13:17:05.749Z,83.58
2019-01-17T13:19:35.328Z,81.75
2019-01-17T13:22:05.075Z,81.56
2019-01-17T13:24:34.695Z,82.05
2019-01-17T13:27:04.671Z,81.65
2019-01-17T13:29:34.286Z,81.99
2019-01-17T13:32:04.010Z,82.28
2019-01-17T13:34:33.587Z,82.03
2019-01-17T13:37:03.336Z,81.67
2019-01-17T13:39:32.986Z,81.29
2019-01-17T13:42:02.584Z,81.07
2019-01-17T13:44:32.242Z,81.39
2019-01-17T13:47:01.826Z,82.03
2019-01-17T13:49:31.515Z,81.63
2019-01-17T13:52:01.191Z,81.63
2019-01-17T13:54:31.137Z,81.80
2019-01-17T13:57:07.320Z,81.96
2019-01-17T13:59:35.842Z,81.49
2019-01-17T14:02:05.380Z,81.62
2019-01-17T14:04:35.229Z,81.90
2019-01-17T14:07:04.812Z,81.73
2019-01-17T14:09:34.465Z,82.45
2019-01-17T14:12:04.107Z,82.71
2019-01-17T14:14:33.773Z,82.82
2019-01-17T14:17:03.286Z,82.98
2019-01-17T14:19:32.923Z,83.29
2019-01-17T14:22:03.354Z,83.58
2019-01-17T14:24:33.203Z,84.08
2019-01-17T14:27:02.781Z,84.38
2019-01-17T14:29:32.438Z,84.61
2019-01-17T14:32:02.090Z,84.67
2019-01-17T14:34:31.773Z,83.73
2019-01-17T14:37:01.281Z,83.26
2019-01-17T14:39:32.673Z,82.82
2019-01-17T14:42:02.338Z,82.83
2019-01-17T14:44:31.945Z,82.56
2019-01-17T14:47:01.486Z,81.88
2019-01-17T14:49:31.046Z,81.56
2019-01-17T14:52:00.582Z,81.52
2019-01-17T14:54:30.144Z,81.74
2019-01-17T14:56:59.695Z,81.00
2019-01-17T14:59:29.452Z,81.85
2019-01-17T15:01:59.036Z,81.20
2019-01-17T15:04:28.671Z,81.59
2019-01-17T15:06:58.357Z,81.80
2019-01-17T15:09:28.021Z,81.87
2019-01-17T15:11:57.809Z,82.21
2019-01-17T15:14:33.355Z,82.15
2019-01-17T15:17:03.067Z,82.33
2019-01-17T15:19:32.834Z,82.51
2019-01-17T15:22:02.553Z,82.79
2019-01-17T15:24:32.156Z,82.68
2019-01-17T15:27:01.846Z,83.42
2019-01-17T15:29:31.372Z,83.45
2019-01-17T15:32:01.073Z,83.79
2019-01-17T15:34:30.751Z,83.50
2019-01-17T15:37:00.357Z,83.90
2019-01-17T15:39:30.041Z,83.94
2019-01-17T15:41:59.701Z,82.75
2019-01-17T15:44:29.377Z,81.83
2019-01-17T15:46:58.913Z,82.08
2019-01-17T15:49:28.427Z,81.77
2019-01-17T15:51:58.095Z,81.83
2019-01-17T15:54:27.641Z,82.03
2019-01-17T15:56:57.241Z,82.13
2019-01-17T15:59:26.919Z,82.37
2019-01-17T16:01:56.490Z,82.63
2019-01-17T16:04:27.161Z,82.82
2019-01-17T16:06:56.695Z,83.21
2019-01-17T16:09:26.349Z,82.96
2019-01-17T16:11:56.014Z,81.54
2019-01-17T16:14:25.626Z,81.67
2019-01-17T16:16:55.253Z,81.92
2019-01-17T16:19:24.911Z,82.27
2019-01-17T16:21:55.185Z,82.49
2019-01-17T16:24:24.890Z,82.79
2019-01-17T16:26:54.535Z,83.07
2019-01-17T16:29:24.285Z,83.19
2019-01-17T16:31:53.983Z,83.47
2019-01-17T16:34:23.528Z,83.68
2019-01-17T16:36:53.181Z,83.56
2019-01-17T16:39:22.683Z,83.31
2019-01-17T16:41:52.225Z,83.10
2019-01-17T16:44:21.813Z,82.50
2019-01-17T16:46:51.345Z,82.62
2019-01-17T16:49:20.941Z,82.69
2019-01-17T16:51:50.505Z,82.80
2019-01-17T16:54:20.192Z,82.78
2019-01-17T16:56:49.888Z,82.70
2019-01-17T16:59:19.498Z,83.41
2019-01-17T17:01:49.171Z,83.13
2019-01-17T17:04:18.894Z,83.10
2019-01-17T17:06:48.499Z,83.10
2019-01-17T17:09:19.030Z,83.21
2019-01-17T17:11:48.631Z,83.28
2019-01-17T17:14:18.458Z,83.18
2019-01-17T17:16:47.952Z,83.39
2019-01-17T17:19:17.750Z,83.49
2019-01-17T17:21:47.707Z,81.90
2019-01-17T17:24:17.504Z,81.08
2019-01-17T17:26:47.223Z,81.07
2019-01-17T17:29:16.971Z,82.15
2019-01-17T17:31:46.586Z,83.48
2019-01-17T17:34:16.146Z,83.80
2019-01-17T17:36:45.705Z,83.90
2019-01-17T17:39:17.700Z,84.78
2019-01-17T17:41:47.407Z,85.11
2019-01-17T17:44:17.127Z,84.93
2019-01-17T17:46:46.607Z,85.32
2019-01-17T17:49:16.744Z,84.71
2019-01-17T17:51:46.493Z,85.21
2019-01-17T17:54:16.122Z,85.69
2019-01-17T17:56:45.736Z,84.62
2019-01-17T17:59:16.153Z,84.34
2019-01-17T18:01:47.353Z,83.81
2019-01-17T18:04:17.053Z,83.45
2019-01-17T18:06:46.604Z,83.02
2019-01-17T18:09:16.146Z,83.64
2019-01-17T18:11:45.769Z,83.59
2019-01-17T18:14:15.746Z,82.36
2019-01-17T18:16:45.867Z,82.56
2019-01-17T18:19:15.712Z,82.63
2019-01-17T18:21:45.223Z,82.51
2019-01-17T18:24:14.900Z,81.62
2019-01-17T18:26:44.410Z,79.60
2019-01-17T18:29:14.023Z,79.65
2019-01-17T18:31:43.594Z,80.96
2019-01-17T18:34:13.087Z,81.01
2019-01-17T18:36:42.561Z,81.57
2019-01-17T18:39:12.514Z,81.83
2019-01-17T18:41:42.050Z,83.17
2019-01-17T18:44:11.568Z,84.41
2019-01-17T18:46:41.679Z,83.99
2019-01-17T18:49:11.205Z,84.12
2019-01-17T18:51:41.009Z,84.79
2019-01-17T18:54:10.477Z,84.74
2019-01-17T18:56:41.957Z,84.36
2019-01-17T18:59:11.845Z,80.54
2019-01-17T19:01:41.841Z,79.41
2019-01-17T19:04:12.797Z,79.63
2019-01-17T19:06:42.384Z,80.03
2019-01-17T19:09:14.903Z,79.91
2019-01-17T19:11:44.596Z,81.10
2019-01-17T19:14:14.225Z,81.73
2019-01-17T19:16:44.189Z,80.66
2019-01-17T19:19:13.961Z,80.90
2019-01-17T19:21:43.617Z,80.68
2019-01-17T19:24:13.161Z,80.37
2019-01-17T19:26:42.681Z,80.62
2019-01-17T19:29:12.323Z,82.30
2019-01-17T19:31:42.028Z,82.43
2019-01-17T19:34:11.719Z,82.83
2019-01-17T19:36:41.897Z,83.59
2019-01-17T19:39:12.371Z,84.63
2019-01-17T19:41:42.799Z,85.25
2019-01-17T19:44:12.645Z,84.80
2019-01-17T19:46:42.542Z,84.93
2019-01-17T19:49:12.077Z,85.11
2019-01-17T19:51:42.196Z,85.67
2019-01-17T19:54:11.797Z,85.59
2019-01-17T19:56:43.499Z,85.35
2019-01-17T19:59:13.069Z,85.42
2019-01-17T20:01:42.810Z,85.99
2019-01-17T20:04:12.252Z,86.27
2019-01-17T20:06:41.808Z,86.74
2019-01-17T20:09:15.882Z,86.56
2019-01-17T20:11:46.204Z,86.69
2019-01-17T20:14:15.997Z,86.11
2019-01-17T20:16:50.787Z,86.59
2019-01-17T20:19:20.935Z,86.30
2019-01-17T20:21:50.602Z,86.63
2019-01-17T20:24:20.148Z,86.74
2019-01-17T20:26:49.692Z,86.75
2019-01-17T20:29:19.266Z,86.53
2019-01-17T20:31:48.843Z,86.65
2019-01-17T20:34:18.427Z,86.46
2019-01-17T20:36:51.928Z,86.06
2019-01-17T20:39:21.480Z,85.11
2019-01-17T20:41:51.041Z,85.37
2019-01-17T20:44:20.599Z,84.44
2019-01-17T20:46:50.143Z,83.94
2019-01-17T20:49:19.705Z,84.11
2019-01-17T20:51:49.240Z,83.78
2019-01-17T20:54:18.761Z,83.15
2019-01-17T20:56:48.223Z,82.99
2019-01-17T20:59:18.760Z,82.80
2019-01-17T21:01:51.550Z,83.22
2019-01-17T21:04:21.077Z,83.42
2019-01-17T21:06:50.535Z,83.03
2019-01-17T21:09:20.180Z,83.20
2019-01-17T21:11:49.817Z,83.31
2019-01-17T21:14:19.320Z,83.36
2019-01-17T21:16:49.200Z,83.27
2019-01-17T21:19:19.117Z,83.41
2019-01-17T21:21:49.023Z,83.23
2019-01-17T21:24:19.080Z,83.18
2019-01-17T21:26:48.728Z,83.21
2019-01-17T21:29:18.666Z,82.43
2019-01-17T21:31:48.491Z,82.13
2019-01-17T21:34:18.018Z,81.75
2019-01-17T21:36:47.674Z,81.45
2019-01-17T21:39:18.069Z,80.82
2019-01-17T21:41:47.648Z,80.83
2019-01-17T21:44:17.563Z,81.25
2019-01-17T21:46:47.381Z,80.75
2019-01-17T21:49:16.861Z,81.11
2019-01-17T21:51:46.319Z,80.89
2019-01-17T21:54:16.607Z,81.01
2019-01-17T21:56:46.172Z,79.76
2019-01-17T21:59:15.647Z,79.89
2019-01-17T22:01:45.146Z,78.44
2019-01-17T22:04:14.700Z,78.71
2019-01-17T22:06:44.203Z,78.81
2019-01-17T22:09:13.708Z,78.90
2019-01-17T22:11:43.451Z,79.42
2019-01-17T22:14:13.022Z,80.29
2019-01-17T22:16:42.532Z,80.76
2019-01-17T22:19:12.192Z,81.34
2019-01-17T22:21:41.665Z,81.44
2019-01-17T22:24:11.181Z,80.95
2019-01-17T22:26:40.762Z,80.96
2019-01-17T22:29:11.369Z,81.13
2019-01-17T22:31:40.960Z,80.82
2019-01-17T22:34:10.515Z,80.49
2019-01-17T22:36:41.236Z,80.18
2019-01-17T22:39:13.724Z,80.41
2019-01-17T22:41:43.250Z,80.82
2019-01-17T22:44:12.752Z,79.55
2019-01-17T22:46:42.190Z,79.44
2019-01-17T22:49:11.794Z,78.26
2019-01-17T22:51:41.266Z,76.63
2019-01-17T22:54:10.851Z,76.41
2019-01-17T22:56:40.455Z,76.56
2019-01-17T22:59:10.333Z,76.01
2019-01-17T23:01:39.883Z,76.89
2019-01-17T23:04:11.377Z,77.39
2019-01-17T23:06:40.985Z,78.20
2019-01-17T23:09:12.177Z,78.93
2019-01-17T23:11:41.677Z,79.62
2019-01-17T23:14:11.181Z,79.38
2019-01-17T23:16:41.098Z,79.49
2019-01-17T23:19:12.263Z,79.81
2019-01-17T23:21:41.837Z,79.35
2019-01-17T23:24:11.345Z,79.31
2019-01-17T23:26:41.011Z,79.34
2019-01-17T23:29:15.974Z,79.10
2019-01-17T23:31:43.304Z,79.20
2019-01-17T23:34:13.098Z,78.06
2019-01-17T23:36:43.004Z,78.66
2019-01-17T23:39:12.515Z,78.65
2019-01-17T23:41:42.095Z,78.40
2019-01-17T23:44:11.736Z,78.54
2019-01-17T23:46:41.415Z,77.80
2019-01-17T23:49:10.962Z,78.18
2019-01-17T23:51:40.782Z,77.73
2019-01-17T23:54:10.331Z,77.61
2019-01-17T23:56:39.922Z,78.25
2019-01-17T23:59:11.472Z,77.40
